Time;durP1;ratioP1;P1;durP2;ratioP2;P2;SDS_P1;SDS_P2;PMS_P1;PMS_P2;Temp;Humidity;BMP_temperature;BMP_pressure;BME280_temperature;BME280_humidity;BME280_pressure;Samples;Min_cycle;Max_cycle;Signal;HPM_P1;HPM_P2
2022/01/11 00:00:21;;;;;;;;;;;5.20;59.10;;;;;;4999618;28;19909;-91
2022/01/11 00:02:47;;;;;;;;;;;5.20;58.90;;;;;;4983108;28;19945;-90
2022/01/11 00:05:21;;;;;;;;;;;5.20;58.80;;;;;;4980328;28;19942;-91
2022/01/11 00:07:47;;;;;;;;;;;5.10;58.70;;;;;;4986507;28;19910;-91
2022/01/11 00:10:24;;;;;;;;;;;5.10;58.60;;;;;;4978667;28;20401;-91
2022/01/11 00:12:49;;;;;;;;;;;5.00;58.50;;;;;;4980203;28;19911;-91
2022/01/11 00:15:15;;;;;;;;;;;5.00;58.50;;;;;;4983638;28;20000;-91
2022/01/11 00:17:40;;;;;;;;;;;5.00;58.40;;;;;;4982508;28;19914;-90
2022/01/11 00:20:06;;;;;;;;;;;5.00;58.40;;;;;;4981798;28;19914;-90
2022/01/11 00:22:35;;;;;;;;;;;5.00;58.50;;;;;;4998191;28;20289;-89
2022/01/11 00:25:01;;;;;;;;;;;4.90;58.50;;;;;;5001687;28;20012;-90
2022/01/11 00:27:26;;;;;;;;;;;4.90;58.50;;;;;;4982469;28;20007;-91
2022/01/11 00:29:55;;;;;;;;;;;4.90;58.40;;;;;;4999156;28;20440;-90
2022/01/11 00:32:30;;;;;;;;;;;4.90;58.30;;;;;;4998197;28;19917;-90
2022/01/11 00:34:56;;;;;;;;;;;4.80;58.10;;;;;;4998815;28;19928;-90
2022/01/11 00:37:22;;;;;;;;;;;4.80;57.90;;;;;;4999262;28;20281;-91
2022/01/11 00:39:50;;;;;;;;;;;4.70;57.50;;;;;;4982472;28;19918;-88
2022/01/11 00:42:19;;;;;;;;;;;4.70;57.20;;;;;;4984533;28;19957;-89
2022/01/11 00:44:45;;;;;;;;;;;4.60;56.90;;;;;;4980696;28;19921;-90
2022/01/11 00:47:11;;;;;;;;;;;4.50;56.60;;;;;;4993703;28;19918;-90
2022/01/11 00:49:39;;;;;;;;;;;4.50;56.40;;;;;;4989905;28;19964;-90
2022/01/11 00:52:05;;;;;;;;;;;4.40;56.50;;;;;;4977820;28;19922;-91
2022/01/11 00:54:30;;;;;;;;;;;4.30;56.30;;;;;;4980180;28;19910;-90
2022/01/11 00:56:56;;;;;;;;;;;4.20;56.20;;;;;;4984663;28;20012;-90
2022/01/11 00:59:21;;;;;;;;;;;4.20;56.30;;;;;;4990400;28;19917;-90
2022/01/11 01:01:47;;;;;;;;;;;4.10;56.40;;;;;;5000450;28;20393;-90
2022/01/11 01:04:12;;;;;;;;;;;4.00;56.30;;;;;;4998985;28;19953;-90
2022/01/11 01:06:39;;;;;;;;;;;4.00;56.30;;;;;;5000709;28;19922;-90
2022/01/11 01:09:05;;;;;;;;;;;4.00;56.50;;;;;;4999608;28;19914;-90
2022/01/11 01:11:30;;;;;;;;;;;3.90;56.70;;;;;;4983231;28;19932;-90
2022/01/11 01:13:56;;;;;;;;;;;3.90;57.00;;;;;;4983611;28;19910;-90
2022/01/11 01:16:21;;;;;;;;;;;4.00;57.20;;;;;;4999975;28;19928;-89
2022/01/11 01:18:47;;;;;;;;;;;4.00;57.30;;;;;;4986448;28;19921;-90
2022/01/11 01:21:13;;;;;;;;;;;4.00;57.50;;;;;;4997489;28;19973;-90
2022/01/11 01:23:38;;;;;;;;;;;4.00;57.50;;;;;;4963185;28;19981;-90
2022/01/11 01:26:04;;;;;;;;;;;4.00;57.60;;;;;;4979141;28;19946;-91
2022/01/11 01:28:30;;;;;;;;;;;4.00;57.70;;;;;;4985994;28;19909;-91
2022/01/11 01:31:00;;;;;;;;;;;4.00;57.70;;;;;;4994316;28;19989;-91
2022/01/11 01:33:26;;;;;;;;;;;4.00;57.80;;;;;;4998149;28;19924;-91
2022/01/11 01:35:58;;;;;;;;;;;4.00;58.00;;;;;;4997122;28;19922;-91
2022/01/11 01:38:25;;;;;;;;;;;4.00;58.00;;;;;;4996665;28;20262;-91
2022/01/11 01:40:51;;;;;;;;;;;4.00;58.00;;;;;;4987853;28;20021;-90
2022/01/11 01:43:18;;;;;;;;;;;4.00;58.00;;;;;;4997684;28;19921;-91
2022/01/11 01:45:44;;;;;;;;;;;4.00;58.10;;;;;;4997583;28;19922;-90
2022/01/11 01:48:10;;;;;;;;;;;4.00;58.10;;;;;;4997359;28;19913;-90
2022/01/11 01:50:36;;;;;;;;;;;4.00;58.00;;;;;;4996157;28;19925;-91
2022/01/11 01:53:03;;;;;;;;;;;4.00;57.90;;;;;;4996288;28;19979;-90
2022/01/11 01:55:28;;;;;;;;;;;4.00;57.70;;;;;;4995632;28;19999;-90
2022/01/11 01:57:54;;;;;;;;;;;4.00;57.30;;;;;;4995976;28;19913;-90
2022/01/11 02:00:19;;;;;;;;;;;3.90;57.20;;;;;;4983335;28;20275;-90
2022/01/11 02:02:45;;;;;;;;;;;3.90;57.20;;;;;;4998226;28;20413;-90
2022/01/11 02:05:11;;;;;;;;;;;3.80;57.30;;;;;;4965662;28;19926;-90
2022/01/11 02:07:36;;;;;;;;;;;3.80;57.20;;;;;;4985313;28;19910;-90
2022/01/11 02:10:04;;;;;;;;;;;3.80;57.10;;;;;;4991760;28;20294;-90
2022/01/11 02:12:29;;;;;;;;;;;3.80;56.90;;;;;;4978142;28;19911;-90
2022/01/11 02:14:55;;;;;;;;;;;3.80;56.90;;;;;;4979266;28;19910;-90
2022/01/11 02:17:20;;;;;;;;;;;3.70;56.80;;;;;;4992701;28;19918;-91
2022/01/11 02:19:46;;;;;;;;;;;3.70;56.90;;;;;;4990071;28;20326;-90
2022/01/11 02:22:11;;;;;;;;;;;3.70;57.00;;;;;;4989173;28;20261;-91
2022/01/11 02:24:37;;;;;;;;;;;3.60;57.00;;;;;;4997624;28;19910;-88
2022/01/11 02:27:03;;;;;;;;;;;3.60;56.70;;;;;;4963691;28;19918;-90
2022/01/11 02:29:28;;;;;;;;;;;3.50;56.40;;;;;;4977620;28;19914;-89
2022/01/11 02:31:54;;;;;;;;;;;3.50;56.10;;;;;;4978334;28;19922;-90
2022/01/11 02:34:19;;;;;;;;;;;3.40;55.80;;;;;;4994758;28;19924;-89
2022/01/11 02:36:45;;;;;;;;;;;3.40;55.80;;;;;;4997230;28;19940;-90
2022/01/11 02:39:10;;;;;;;;;;;3.30;55.90;;;;;;4986853;28;19922;-89
2022/01/11 02:41:47;;;;;;;;;;;3.30;55.80;;;;;;4996352;28;20279;-89
2022/01/11 02:44:12;;;;;;;;;;;3.20;55.70;;;;;;4998330;28;19909;-90
2022/01/11 02:46:38;;;;;;;;;;;3.20;55.60;;;;;;4996956;28;20428;-90
2022/01/11 02:49:03;;;;;;;;;;;3.10;55.40;;;;;;4981860;28;19952;-90
2022/01/11 02:51:29;;;;;;;;;;;3.00;55.20;;;;;;5001201;28;19922;-89
2022/01/11 02:53:55;;;;;;;;;;;3.00;55.20;;;;;;5001089;28;20012;-89
2022/01/11 02:56:21;;;;;;;;;;;3.00;55.40;;;;;;4985158;28;19922;-90
2022/01/11 02:58:46;;;;;;;;;;;3.00;55.20;;;;;;4991447;28;19977;-90
2022/01/11 03:01:12;;;;;;;;;;;2.90;55.10;;;;;;4984102;28;19918;-91
2022/01/11 03:03:37;;;;;;;;;;;2.90;55.20;;;;;;4981980;28;19911;-91
2022/01/11 03:06:03;;;;;;;;;;;2.80;55.10;;;;;;5000280;28;20372;-90
2022/01/11 03:08:31;;;;;;;;;;;2.80;55.30;;;;;;4974141;28;19922;-90
2022/01/11 03:10:57;;;;;;;;;;;2.80;55.60;;;;;;4999959;28;20350;-91
2022/01/11 03:13:23;;;;;;;;;;;2.80;55.70;;;;;;5001716;28;19910;-91
2022/01/11 03:15:49;;;;;;;;;;;2.80;55.80;;;;;;5000045;28;19922;-90
2022/01/11 03:18:15;;;;;;;;;;;2.80;55.80;;;;;;4998700;28;20000;-90
2022/01/11 03:20:41;;;;;;;;;;;2.80;55.70;;;;;;4998089;28;20061;-91
2022/01/11 03:23:07;;;;;;;;;;;2.70;55.60;;;;;;4997578;28;19917;-90
2022/01/11 03:25:33;;;;;;;;;;;2.70;55.40;;;;;;4986418;28;19918;-90
2022/01/11 03:27:58;;;;;;;;;;;2.70;55.20;;;;;;4997262;28;19914;-90
2022/01/11 03:30:24;;;;;;;;;;;2.60;55.20;;;;;;4985080;28;19926;-90
2022/01/11 03:32:49;;;;;;;;;;;2.60;55.10;;;;;;4984339;28;19916;-90
2022/01/11 03:35:15;;;;;;;;;;;2.60;55.00;;;;;;5000405;28;19925;-91
2022/01/11 03:37:41;;;;;;;;;;;2.60;55.00;;;;;;4977740;28;20009;-90
2022/01/11 03:40:09;;;;;;;;;;;2.50;54.90;;;;;;4999623;28;19918;-90
2022/01/11 03:42:34;;;;;;;;;;;2.50;55.20;;;;;;4981962;28;19918;-89
2022/01/11 03:45:00;;;;;;;;;;;2.50;55.50;;;;;;4992497;28;20329;-90
2022/01/11 03:47:26;;;;;;;;;;;2.50;55.60;;;;;;4977514;28;20709;-91
2022/01/11 03:49:51;;;;;;;;;;;2.50;55.50;;;;;;4976744;28;20028;-91
2022/01/11 03:52:17;;;;;;;;;;;2.40;55.40;;;;;;4991593;28;20446;-91
2022/01/11 03:54:51;;;;;;;;;;;2.40;55.30;;;;;;4996144;28;19921;-91
2022/01/11 03:57:17;;;;;;;;;;;2.40;55.20;;;;;;4996768;28;19929;-89
2022/01/11 03:59:42;;;;;;;;;;;2.40;55.00;;;;;;4998147;28;19910;-89
2022/01/11 04:02:11;;;;;;;;;;;2.40;54.80;;;;;;4987937;28;20033;-90
2022/01/11 04:04:36;;;;;;;;;;;2.30;54.70;;;;;;4995132;28;19937;-89
2022/01/11 04:07:03;;;;;;;;;;;2.30;54.60;;;;;;4999009;28;19909;-88
2022/01/11 04:09:29;;;;;;;;;;;2.30;54.50;;;;;;4996521;28;19952;-89
2022/01/11 04:11:54;;;;;;;;;;;2.20;54.50;;;;;;5014308;28;19926;-91
2022/01/11 04:14:21;;;;;;;;;;;2.20;54.40;;;;;;5009198;28;19940;-90
2022/01/11 04:16:47;;;;;;;;;;;2.10;54.30;;;;;;4996471;28;19983;-90
2022/01/11 04:19:13;;;;;;;;;;;2.20;54.40;;;;;;4980505;28;19910;-90
2022/01/11 04:21:38;;;;;;;;;;;2.10;54.50;;;;;;4999402;28;19944;-90
2022/01/11 04:24:04;;;;;;;;;;;2.10;54.50;;;;;;4990015;28;20009;-91
2022/01/11 04:26:30;;;;;;;;;;;2.10;54.50;;;;;;4995121;28;19922;-90
2022/01/11 04:28:55;;;;;;;;;;;2.10;54.60;;;;;;4995848;28;19924;-90
2022/01/11 04:31:20;;;;;;;;;;;2.10;54.70;;;;;;4996533;28;20040;-91
2022/01/11 04:33:46;;;;;;;;;;;2.00;54.60;;;;;;4978149;28;19922;-90
2022/01/11 04:36:12;;;;;;;;;;;2.00;54.60;;;;;;4976961;28;19941;-90
2022/01/11 04:38:37;;;;;;;;;;;2.00;54.50;;;;;;4976943;28;19933;-90
2022/01/11 04:41:03;;;;;;;;;;;2.00;54.60;;;;;;4977092;28;19950;-90
2022/01/11 04:43:30;;;;;;;;;;;2.00;54.60;;;;;;4976617;28;20004;-90
2022/01/11 04:45:56;;;;;;;;;;;2.00;54.40;;;;;;4975489;28;19922;-89
2022/01/11 04:48:21;;;;;;;;;;;1.90;54.40;;;;;;4983142;28;19911;-89
2022/01/11 04:50:50;;;;;;;;;;;2.00;54.30;;;;;;4977938;28;19973;-90
2022/01/11 04:53:16;;;;;;;;;;;2.00;54.60;;;;;;4980829;28;19922;-90
2022/01/11 04:55:41;;;;;;;;;;;2.00;54.70;;;;;;4986790;28;19922;-90
2022/01/11 04:58:07;;;;;;;;;;;1.90;54.60;;;;;;4993766;28;20301;-90
2022/01/11 05:00:33;;;;;;;;;;;1.90;54.50;;;;;;4997337;28;19961;-88
2022/01/11 05:02:59;;;;;;;;;;;1.90;54.40;;;;;;4995960;28;19920;-90
2022/01/11 05:05:29;;;;;;;;;;;1.90;54.50;;;;;;4979090;28;19925;-89
2022/01/11 05:07:55;;;;;;;;;;;1.90;54.50;;;;;;4977981;28;19917;-90
2022/01/11 05:10:21;;;;;;;;;;;1.90;54.70;;;;;;4979247;28;20011;-90
2022/01/11 05:12:46;;;;;;;;;;;1.90;54.70;;;;;;4976446;28;20333;-89
2022/01/11 05:15:13;;;;;;;;;;;1.90;54.80;;;;;;4994661;28;19982;-90
2022/01/11 05:17:39;;;;;;;;;;;1.90;54.70;;;;;;4995433;28;19960;-90
2022/01/11 05:20:05;;;;;;;;;;;1.90;54.50;;;;;;4996921;28;20012;-90
2022/01/11 05:22:31;;;;;;;;;;;1.90;54.50;;;;;;4994798;28;19921;-91
2022/01/11 05:24:56;;;;;;;;;;;1.90;54.50;;;;;;4979893;28;19918;-90
2022/01/11 05:27:22;;;;;;;;;;;1.90;54.40;;;;;;4979337;28;19989;-89
2022/01/11 05:29:47;;;;;;;;;;;1.90;54.30;;;;;;4994465;28;20008;-89
2022/01/11 05:32:13;;;;;;;;;;;1.90;54.40;;;;;;4988137;28;19968;-90
2022/01/11 05:34:38;;;;;;;;;;;1.90;54.60;;;;;;4994846;28;20366;-91
2022/01/11 05:37:03;;;;;;;;;;;1.90;54.70;;;;;;4995683;28;20009;-90
2022/01/11 05:39:29;;;;;;;;;;;1.90;54.70;;;;;;4988008;28;19910;-90
2022/01/11 05:41:54;;;;;;;;;;;1.90;54.70;;;;;;5000793;28;19948;-90
2022/01/11 05:44:20;;;;;;;;;;;1.90;54.50;;;;;;4997124;28;19924;-91
2022/01/11 05:46:46;;;;;;;;;;;1.90;54.80;;;;;;4992552;28;19925;-90
2022/01/11 05:49:11;;;;;;;;;;;1.90;55.00;;;;;;4989350;28;19922;-91
2022/01/11 05:51:37;;;;;;;;;;;1.90;55.10;;;;;;4992797;28;19928;-90
2022/01/11 05:54:02;;;;;;;;;;;1.90;54.90;;;;;;4996181;28;19917;-91
2022/01/11 05:56:30;;;;;;;;;;;1.90;54.80;;;;;;4996542;28;19917;-91
2022/01/11 05:59:02;;;;;;;;;;;1.80;54.60;;;;;;4996079;28;19980;-91
2022/01/11 06:01:27;;;;;;;;;;;1.80;54.50;;;;;;4993209;28;19918;-92
2022/01/11 06:03:52;;;;;;;;;;;1.80;54.50;;;;;;4986642;28;19977;-90
2022/01/11 06:06:18;;;;;;;;;;;1.80;54.40;;;;;;4982436;28;19993;-90
2022/01/11 06:08:43;;;;;;;;;;;1.80;54.40;;;;;;4995795;28;19913;-89
2022/01/11 06:11:09;;;;;;;;;;;1.70;54.30;;;;;;4993688;28;19922;-91
2022/01/11 06:13:34;;;;;;;;;;;1.70;54.20;;;;;;4985252;28;20033;-91
2022/01/11 06:16:01;;;;;;;;;;;1.70;54.20;;;;;;4993517;28;20277;-90
2022/01/11 06:18:26;;;;;;;;;;;1.70;54.20;;;;;;4983527;28;19918;-91
2022/01/11 06:20:52;;;;;;;;;;;1.70;54.20;;;;;;4987948;28;19926;-91
2022/01/11 06:23:17;;;;;;;;;;;1.70;54.20;;;;;;4989341;28;19914;-90
2022/01/11 06:25:42;;;;;;;;;;;1.70;54.00;;;;;;4990020;28;19954;-91
2022/01/11 06:28:08;;;;;;;;;;;1.70;54.00;;;;;;4983819;28;19914;-90
2022/01/11 06:30:33;;;;;;;;;;;1.70;54.00;;;;;;4984197;28;20282;-90
2022/01/11 06:32:59;;;;;;;;;;;1.70;53.80;;;;;;4980874;28;20439;-90
2022/01/11 06:35:24;;;;;;;;;;;1.70;53.80;;;;;;4996363;28;19945;-90
2022/01/11 06:37:50;;;;;;;;;;;1.70;53.90;;;;;;4998378;28;19937;-90
2022/01/11 06:40:17;;;;;;;;;;;1.70;54.00;;;;;;4992348;28;19929;-90
2022/01/11 06:42:44;;;;;;;;;;;1.70;53.90;;;;;;4994203;28;20420;-90
2022/01/11 06:45:11;;;;;;;;;;;1.70;53.90;;;;;;4987531;28;19918;-89
2022/01/11 06:47:36;;;;;;;;;;;1.60;53.90;;;;;;4978616;28;19913;-90
2022/01/11 06:50:02;;;;;;;;;;;1.70;53.80;;;;;;4988193;28;19925;-90
2022/01/11 06:52:27;;;;;;;;;;;1.60;53.70;;;;;;4984189;28;19921;-90
2022/01/11 06:54:53;;;;;;;;;;;1.60;53.60;;;;;;4991770;28;19922;-90
2022/01/11 06:57:18;;;;;;;;;;;1.60;53.50;;;;;;4987847;28;19920;-90
2022/01/11 06:59:44;;;;;;;;;;;1.50;53.50;;;;;;4984516;28;19922;-90
2022/01/11 07:02:10;;;;;;;;;;;1.50;53.50;;;;;;4986562;28;19995;-91
2022/01/11 07:04:37;;;;;;;;;;;1.50;53.60;;;;;;4992022;28;19910;-90
2022/01/11 07:07:04;;;;;;;;;;;1.50;53.70;;;;;;4992225;28;19918;-90
2022/01/11 07:09:29;;;;;;;;;;;1.50;53.90;;;;;;4989423;28;19946;-90
2022/01/11 07:11:55;;;;;;;;;;;1.50;54.00;;;;;;4987710;28;19976;-91
2022/01/11 07:14:20;;;;;;;;;;;1.50;54.10;;;;;;4984212;28;19917;-90
2022/01/11 07:16:48;;;;;;;;;;;1.50;54.10;;;;;;4993616;28;20033;-91
2022/01/11 07:19:16;;;;;;;;;;;1.60;54.20;;;;;;4983746;28;19925;-90
2022/01/11 07:21:44;;;;;;;;;;;1.60;54.20;;;;;;4975460;28;19925;-90
2022/01/11 07:24:10;;;;;;;;;;;1.60;54.20;;;;;;4987522;28;19958;-90
2022/01/11 07:26:36;;;;;;;;;;;1.60;54.30;;;;;;4988225;28;20079;-91
2022/01/11 07:29:03;;;;;;;;;;;1.60;54.20;;;;;;4986292;28;19949;-91
2022/01/11 07:31:29;;;;;;;;;;;1.60;54.20;;;;;;4987705;28;20004;-90
2022/01/11 07:33:55;;;;;;;;;;;1.60;54.30;;;;;;4986791;28;19941;-90
2022/01/11 07:36:20;;;;;;;;;;;1.60;54.40;;;;;;4990829;28;19972;-90
2022/01/11 07:38:45;;;;;;;;;;;1.70;54.40;;;;;;4980098;28;20035;-90
2022/01/11 07:41:11;;;;;;;;;;;1.70;54.30;;;;;;4998312;28;19925;-90
2022/01/11 07:43:36;;;;;;;;;;;1.70;54.40;;;;;;4987060;28;20289;-92
2022/01/11 07:46:02;;;;;;;;;;;1.80;54.90;;;;;;4985799;28;20620;-90
2022/01/11 07:48:27;;;;;;;;;;;1.80;55.70;;;;;;4989939;28;20332;-89
2022/01/11 07:50:53;;;;;;;;;;;2.00;56.60;;;;;;4982327;28;20369;-90
2022/01/11 07:53:18;;;;;;;;;;;2.20;57.50;;;;;;4994796;28;19917;-91
2022/01/11 07:55:44;;;;;;;;;;;2.40;58.30;;;;;;4987933;28;20334;-90
2022/01/11 07:58:09;;;;;;;;;;;2.70;59.00;;;;;;4981911;28;19913;-91
2022/01/11 08:00:35;;;;;;;;;;;2.90;59.60;;;;;;4981379;28;19919;-90
2022/01/11 08:03:00;;;;;;;;;;;3.20;60.20;;;;;;4990477;28;20005;-92
2022/01/11 08:05:26;;;;;;;;;;;3.50;60.90;;;;;;4982035;28;19981;-91
2022/01/11 08:07:51;;;;;;;;;;;3.80;61.20;;;;;;4991144;28;19969;-91
2022/01/11 08:10:18;;;;;;;;;;;4.10;61.70;;;;;;4992798;28;20344;-91
2022/01/11 08:12:44;;;;;;;;;;;4.40;62.00;;;;;;4986608;28;20448;-91
2022/01/11 08:15:10;;;;;;;;;;;4.70;62.30;;;;;;4969219;28;19964;-91
2022/01/11 08:17:35;;;;;;;;;;;5.10;62.50;;;;;;4982456;28;19954;-91
2022/01/11 08:20:01;;;;;;;;;;;5.40;62.50;;;;;;4987912;28;19936;-90
2022/01/11 08:22:26;;;;;;;;;;;5.80;62.40;;;;;;4983102;28;20005;-90
2022/01/11 08:24:52;;;;;;;;;;;6.10;62.20;;;;;;4981513;28;19926;-89
2022/01/11 08:27:19;;;;;;;;;;;6.40;62.00;;;;;;4983975;28;20390;-90
2022/01/11 08:29:47;;;;;;;;;;;6.70;61.80;;;;;;4973099;28;21954;-89
2022/01/11 08:32:12;;;;;;;;;;;7.00;61.50;;;;;;4988248;28;19980;-90
2022/01/11 08:34:37;;;;;;;;;;;7.20;61.50;;;;;;4990476;28;20037;-90
2022/01/11 08:37:04;;;;;;;;;;;7.50;61.30;;;;;;4985314;28;19914;-91
2022/01/11 08:39:30;;;;;;;;;;;7.80;61.00;;;;;;4986829;28;19914;-90
2022/01/11 08:41:55;;;;;;;;;;;8.00;61.00;;;;;;4982662;28;19980;-90
2022/01/11 08:44:22;;;;;;;;;;;8.30;61.10;;;;;;4988006;28;19922;-90
2022/01/11 08:46:48;;;;;;;;;;;8.60;61.40;;;;;;4984746;28;20008;-92
2022/01/11 08:49:13;;;;;;;;;;;8.90;61.70;;;;;;4980912;28;19957;-90
2022/01/11 08:51:39;;;;;;;;;;;9.30;61.90;;;;;;4989245;28;19918;-91
2022/01/11 08:54:05;;;;;;;;;;;9.50;61.80;;;;;;4986963;28;20008;-91
2022/01/11 08:56:31;;;;;;;;;;;9.80;61.90;;;;;;4973128;28;19913;-91
2022/01/11 08:58:56;;;;;;;;;;;10.00;61.70;;;;;;4986097;28;19920;-90
2022/01/11 09:01:23;;;;;;;;;;;10.30;61.30;;;;;;4978726;28;20254;-90
2022/01/11 09:03:49;;;;;;;;;;;10.40;61.10;;;;;;4985592;28;19925;-90
2022/01/11 09:06:14;;;;;;;;;;;10.60;61.30;;;;;;4965572;28;19922;-90
2022/01/11 09:08:41;;;;;;;;;;;10.80;61.60;;;;;;4983004;28;19940;-90
2022/01/11 09:11:06;;;;;;;;;;;11.00;61.90;;;;;;4984409;28;20394;-90
2022/01/11 09:13:33;;;;;;;;;;;11.30;62.10;;;;;;4983818;28;19922;-91
2022/01/11 09:15:59;;;;;;;;;;;11.50;62.30;;;;;;4969140;28;20401;-92
2022/01/11 09:18:24;;;;;;;;;;;11.80;62.20;;;;;;4984623;28;19956;-91
2022/01/11 09:20:50;;;;;;;;;;;12.00;62.20;;;;;;4994488;28;19914;-91
2022/01/11 09:23:15;;;;;;;;;;;12.20;62.50;;;;;;4980682;28;19918;-91
2022/01/11 09:25:47;;;;;;;;;;;12.40;62.50;;;;;;4988632;28;19964;-90
2022/01/11 09:28:15;;;;;;;;;;;12.60;62.30;;;;;;4990129;28;19929;-91
2022/01/11 09:30:42;;;;;;;;;;;12.70;62.10;;;;;;4984146;28;20052;-90
2022/01/11 09:33:08;;;;;;;;;;;12.80;61.80;;;;;;4989248;28;19969;-91
2022/01/11 09:35:33;;;;;;;;;;;13.10;61.60;;;;;;4995546;28;19914;-91
2022/01/11 09:38:24;;;;;;;;;;;13.10;61.30;;;;;;4985899;28;19978;-88
2022/01/11 09:40:57;;;;;;;;;;;13.20;61.30;;;;;;4984464;28;19914;-87
2022/01/11 09:43:23;;;;;;;;;;;13.30;62.00;;;;;;4979924;28;19929;-87
2022/01/11 09:45:49;;;;;;;;;;;13.50;62.40;;;;;;4975389;28;19921;-87
2022/01/11 09:48:18;;;;;;;;;;;13.70;62.60;;;;;;4980617;28;19914;-87
2022/01/11 09:50:43;;;;;;;;;;;13.80;62.80;;;;;;4970749;28;19922;-88
2022/01/11 09:53:09;;;;;;;;;;;14.00;62.80;;;;;;4994093;28;19917;-88
2022/01/11 09:55:36;;;;;;;;;;;14.20;62.80;;;;;;4980563;28;19997;-87
2022/01/11 09:58:03;;;;;;;;;;;14.30;62.70;;;;;;4985764;28;20038;-87
2022/01/11 10:00:28;;;;;;;;;;;14.40;62.50;;;;;;4984004;28;19918;-87
2022/01/11 10:02:54;;;;;;;;;;;14.50;61.90;;;;;;4989250;28;19933;-88
2022/01/11 10:05:20;;;;;;;;;;;14.60;61.90;;;;;;4989218;28;19921;-87
2022/01/11 10:07:45;;;;;;;;;;;14.60;61.70;;;;;;4985379;28;19915;-86
2022/01/11 10:10:12;;;;;;;;;;;14.70;61.40;;;;;;4989147;28;19914;-86
2022/01/11 10:12:42;;;;;;;;;;;14.80;61.40;;;;;;4983205;28;20354;-87
2022/01/11 10:15:08;;;;;;;;;;;14.80;61.50;;;;;;4965877;28;19932;-86
2022/01/11 10:17:40;;;;;;;;;;;14.80;61.10;;;;;;4982932;28;19914;-87
2022/01/11 10:20:11;;;;;;;;;;;14.80;60.90;;;;;;4976509;28;19918;-87
2022/01/11 10:22:48;;;;;;;;;;;14.80;61.10;;;;;;4985907;28;19961;-87
2022/01/11 10:25:14;;;;;;;;;;;14.80;61.30;;;;;;4989508;28;19922;-87
2022/01/11 10:27:39;;;;;;;;;;;14.90;61.00;;;;;;4984110;28;20346;-87
2022/01/11 10:30:12;;;;;;;;;;;15.00;60.70;;;;;;4985649;28;19922;-87
2022/01/11 10:32:39;;;;;;;;;;;14.90;60.40;;;;;;4966462;28;19917;-87
2022/01/11 10:35:05;;;;;;;;;;;14.90;60.60;;;;;;4985508;28;20024;-87
2022/01/11 10:37:38;;;;;;;;;;;15.00;60.50;;;;;;4983106;28;20708;-87
2022/01/11 10:40:07;;;;;;;;;;;15.00;60.60;;;;;;4987808;28;20377;-87
2022/01/11 10:42:33;;;;;;;;;;;15.10;60.60;;;;;;4984982;28;19929;-87
2022/01/11 10:45:01;;;;;;;;;;;15.10;60.90;;;;;;4986599;28;19918;-87
2022/01/11 10:47:47;;;;;;;;;;;15.20;61.00;;;;;;4969464;28;19917;-87
2022/01/11 10:50:15;;;;;;;;;;;15.30;61.00;;;;;;4995469;28;19985;-87
2022/01/11 10:52:42;;;;;;;;;;;15.30;60.80;;;;;;4998863;28;19910;-87
2022/01/11 10:55:11;;;;;;;;;;;15.40;60.60;;;;;;4983485;28;19918;-87
2022/01/11 10:57:37;;;;;;;;;;;15.40;60.70;;;;;;4983394;28;19910;-88
2022/01/11 11:00:03;;;;;;;;;;;15.50;60.60;;;;;;4987250;28;19921;-87
2022/01/11 11:02:28;;;;;;;;;;;15.50;60.50;;;;;;4980867;28;19920;-87
2022/01/11 11:04:55;;;;;;;;;;;15.60;61.00;;;;;;4983545;28;19922;-87
2022/01/11 11:07:23;;;;;;;;;;;15.70;61.50;;;;;;4988914;28;19914;-87
2022/01/11 11:09:51;;;;;;;;;;;15.80;61.90;;;;;;4990453;28;19917;-88
2022/01/11 11:12:20;;;;;;;;;;;16.00;61.50;;;;;;4995070;28;19913;-87
2022/01/11 11:14:53;;;;;;;;;;;16.10;61.50;;;;;;4981299;28;19945;-88
2022/01/11 11:17:25;;;;;;;;;;;16.20;61.80;;;;;;4970445;28;19920;-88
2022/01/11 11:20:10;;;;;;;;;;;16.30;61.60;;;;;;4989735;28;20314;-87
2022/01/11 11:22:36;;;;;;;;;;;16.40;61.20;;;;;;4989153;28;19969;-88
2022/01/11 11:25:03;;;;;;;;;;;16.50;61.20;;;;;;4991899;28;19968;-87
2022/01/11 11:27:30;;;;;;;;;;;16.60;60.60;;;;;;4988462;28;20281;-88
2022/01/11 11:29:57;;;;;;;;;;;16.70;60.60;;;;;;4987708;28;19922;-88
2022/01/11 11:32:22;;;;;;;;;;;16.70;60.60;;;;;;4969443;28;19919;-87
2022/01/11 11:34:52;;;;;;;;;;;16.80;60.50;;;;;;4991704;28;19918;-88
2022/01/11 11:37:27;;;;;;;;;;;16.90;60.20;;;;;;4986227;28;19932;-87
2022/01/11 11:39:54;;;;;;;;;;;16.90;60.30;;;;;;4987611;28;19926;-86
2022/01/11 11:42:21;;;;;;;;;;;17.00;59.90;;;;;;4986709;28;19928;-86
2022/01/11 11:44:48;;;;;;;;;;;17.00;59.40;;;;;;4987562;28;19929;-87
2022/01/11 11:47:14;;;;;;;;;;;17.00;59.40;;;;;;4984605;28;19914;-87
2022/01/11 11:49:49;;;;;;;;;;;16.90;59.50;;;;;;4971475;28;19917;-89
2022/01/11 11:52:16;;;;;;;;;;;16.90;59.80;;;;;;4980895;28;20464;-88
2022/01/11 11:54:52;;;;;;;;;;;17.00;59.70;;;;;;4988707;28;19978;-86
2022/01/11 11:57:18;;;;;;;;;;;17.00;59.60;;;;;;4983434;28;20401;-87
2022/01/11 11:59:54;;;;;;;;;;;17.00;58.90;;;;;;4985705;28;20318;-87
2022/01/11 12:02:34;;;;;;;;;;;16.90;58.30;;;;;;4993448;28;19928;-87
2022/01/11 12:05:00;;;;;;;;;;;16.80;58.40;;;;;;4965381;28;20283;-87
2022/01/11 12:07:28;;;;;;;;;;;16.60;58.10;;;;;;4966154;28;19968;-87
2022/01/11 12:09:53;;;;;;;;;;;16.40;57.50;;;;;;4991667;28;19927;-86
2022/01/11 12:12:38;;;;;;;;;;;16.00;57.10;;;;;;4979815;28;20366;-89
2022/01/11 12:15:21;;;;;;;;;;;15.50;57.40;;;;;;4976774;28;20005;-86
2022/01/11 12:18:07;;;;;;;;;;;15.00;58.60;;;;;;4988489;28;20274;-87
2022/01/11 12:20:39;;;;;;;;;;;14.60;59.60;;;;;;4972396;28;19922;-87
2022/01/11 12:23:05;;;;;;;;;;;14.20;60.00;;;;;;4990058;28;19922;-87
2022/01/11 12:25:32;;;;;;;;;;;13.90;60.20;;;;;;4985664;28;19944;-87
2022/01/11 12:27:59;;;;;;;;;;;13.60;60.70;;;;;;4990137;28;19952;-87
2022/01/11 12:30:26;;;;;;;;;;;13.40;61.00;;;;;;4969883;28;19933;-86
2022/01/11 12:33:08;;;;;;;;;;;13.10;61.00;;;;;;4984070;28;19932;-87
2022/01/11 12:35:48;;;;;;;;;;;12.90;61.70;;;;;;4982975;28;19924;-87
2022/01/11 12:38:14;;;;;;;;;;;12.70;62.20;;;;;;5000837;28;19924;-87
2022/01/11 12:40:40;;;;;;;;;;;12.60;62.60;;;;;;4980905;28;19922;-87
2022/01/11 12:43:16;;;;;;;;;;;12.50;62.40;;;;;;4987023;28;20325;-87
2022/01/11 12:46:01;;;;;;;;;;;12.30;62.00;;;;;;4986076;28;20005;-86
2022/01/11 12:48:42;;;;;;;;;;;12.20;62.90;;;;;;4983201;28;19968;-87
2022/01/11 12:51:08;;;;;;;;;;;12.10;63.20;;;;;;4980697;28;19926;-87
2022/01/11 12:53:41;;;;;;;;;;;12.00;63.40;;;;;;4988495;28;19909;-88
2022/01/11 12:56:10;;;;;;;;;;;12.00;62.90;;;;;;4978651;28;19961;-86
2022/01/11 12:58:35;;;;;;;;;;;11.90;63.20;;;;;;4988257;28;19921;-86
2022/01/11 13:01:14;;;;;;;;;;;11.80;63.30;;;;;;4982441;28;20005;-87
2022/01/11 13:03:49;;;;;;;;;;;11.90;64.20;;;;;;4969591;28;20288;-86
2022/01/11 13:06:15;;;;;;;;;;;11.80;64.00;;;;;;4984787;28;20225;-87
2022/01/11 13:08:42;;;;;;;;;;;11.80;63.60;;;;;;4985535;28;19918;-90
2022/01/11 13:11:17;;;;;;;;;;;11.80;63.30;;;;;;4990311;28;20779;-91
2022/01/11 13:13:52;;;;;;;;;;;11.80;63.90;;;;;;4990423;28;19922;-90
2022/01/11 13:16:27;;;;;;;;;;;11.80;63.30;;;;;;4985668;28;20255;-90
2022/01/11 13:18:52;;;;;;;;;;;11.70;63.80;;;;;;4974359;28;20290;-90
2022/01/11 13:21:22;;;;;;;;;;;11.70;63.40;;;;;;4984980;28;19918;-90
2022/01/11 13:24:00;;;;;;;;;;;11.70;62.90;;;;;;4988973;28;19917;-90
2022/01/11 13:26:26;;;;;;;;;;;11.70;63.00;;;;;;4993248;28;19925;-90
2022/01/11 13:28:53;;;;;;;;;;;11.70;63.20;;;;;;4988317;28;19926;-90
2022/01/11 13:31:37;;;;;;;;;;;11.70;62.80;;;;;;4992134;28;20332;-90
2022/01/11 13:34:07;;;;;;;;;;;11.60;62.60;;;;;;4967117;28;19926;-89
2022/01/11 13:36:34;;;;;;;;;;;11.70;62.50;;;;;;4983647;28;19902;-89
2022/01/11 13:39:21;;;;;;;;;;;11.60;62.20;;;;;;4966718;28;19949;-88
2022/01/11 13:41:48;;;;;;;;;;;11.60;62.40;;;;;;4963461;28;20330;-90
2022/01/11 13:44:14;;;;;;;;;;;11.60;62.50;;;;;;4992524;28;19933;-90
2022/01/11 13:46:44;;;;;;;;;;;11.60;62.50;;;;;;4984445;28;19937;-91
2022/01/11 13:49:18;;;;;;;;;;;11.60;62.20;;;;;;4982956;28;20293;-90
2022/01/11 13:51:45;;;;;;;;;;;11.60;61.90;;;;;;4987878;28;20092;-89
2022/01/11 13:54:11;;;;;;;;;;;11.60;61.80;;;;;;4985666;28;20334;-90
2022/01/11 13:56:40;;;;;;;;;;;11.60;61.90;;;;;;4985787;28;19914;-89
2022/01/11 13:59:06;;;;;;;;;;;11.60;61.80;;;;;;4985204;28;19922;-89
2022/01/11 14:01:32;;;;;;;;;;;11.60;61.80;;;;;;4983359;28;19918;-90
2022/01/11 14:04:11;;;;;;;;;;;11.60;61.70;;;;;;4990277;28;19930;-90
2022/01/11 14:06:48;;;;;;;;;;;11.60;61.90;;;;;;4991568;28;19925;-90
2022/01/11 14:09:22;;;;;;;;;;;11.60;61.70;;;;;;4991035;28;19918;-90
2022/01/11 14:12:05;;;;;;;;;;;11.60;61.30;;;;;;4977148;28;19965;-90
2022/01/11 14:14:34;;;;;;;;;;;11.60;61.20;;;;;;4980728;28;19973;-89
2022/01/11 14:17:17;;;;;;;;;;;11.60;61.40;;;;;;4991351;28;19910;-90
2022/01/11 14:19:51;;;;;;;;;;;11.60;61.60;;;;;;4989147;28;19922;-90
2022/01/11 14:22:17;;;;;;;;;;;11.60;61.60;;;;;;4985454;28;20097;-90
2022/01/11 14:24:56;;;;;;;;;;;11.60;61.30;;;;;;4988349;28;19921;-90
2022/01/11 14:27:22;;;;;;;;;;;11.60;61.10;;;;;;4963977;28;20010;-90